Airfield :
LOGIN :

Register | Disclaimer

   EN    FR    IT 

 










Legend :    VFR   Marginal VFR   IFR   Intensive IFR   Very Intensive IFR
Visi :
Ceiling :
>= 8 km
>= 3000ft
5 to 8 km
1000 to 3000 ft
1500m to 5 km
500 to 1000 ft
800 to 1500m
200 to 500 ft
< 800m
< 200 ft
Symbols :   Thunderstorms  Fog  Heavy snow  Heavy precipitations  Wind > 20 kt
SIGMETs :     Misc.  Thunderstorms  Icing  Turbulence  Mountain Waves  Volcanic Ashes







- Airport Elevation : 24 ft
- IATA code : SGD


EKSB - Sonderborg

CURRENT METAR :
  • 270524Z 29009G19KT 250V330 9999 BKN016 14/10 Q1023

EXPIRED METARs :
  • 270450Z 29009KT 260V340 9999 BKN017 14/10 Q1024
  • 270420Z 30010KT 260V340 9999 BKN017 13/10 Q1023
  • 270350Z AUTO 30013G23KT 9999NDV BKN018/// 13/10 Q1024
  • 270320Z AUTO 29011G21KT 260V320 9999NDV BKN018/// 13/09 Q1023
  • 270250Z AUTO 29013G23KT 250V320 9999NDV BKN019/// 13/09 Q1024

TAF TAF EKSB
Valid from the 27 at 05:00 until the 27 at 12:00 UTC


270450Z 2705/2712 30015KT 9999 BKN020
No reported NOTAMs for that airfield.



MET'MAP, your aeronautical weather chart ! - Copyright ORBIFLY December 2007 - Disclaimer

ORBIFLY MET'MAP TEAM :

Programming & Development : Alexandra Zaïnal
Concept & Development : Baudouin d'Aumeries
Co-Development & Prog : Marc-Olivier Méhu
Technical & hardware support : Manuel Goepfert

Contact : metmap@orbifly.com




SOURCES & CREDITS :

   NOAA